Time;durP1;ratioP1;P1;durP2;ratioP2;P2;SDS_P1;SDS_P2;PMS_P1;PMS_P2;Temp;Humidity;BMP_temperature;BMP_pressure;BME280_temperature;BME280_humidity;BME280_pressure;Samples;Min_cycle;Max_cycle;Signal;HPM_P1;HPM_P2
2022/07/14 00:00:25;;;;;;;0.77;0.10;;;14.40;97.40;;;;;;4944355;28;20035;-78
2022/07/14 00:02:53;;;;;;;2.38;0.35;;;14.60;97.20;;;;;;4947769;28;20036;-80
2022/07/14 00:05:20;;;;;;;0.65;0.20;;;14.70;96.80;;;;;;4944296;28;20490;-82
2022/07/14 00:07:47;;;;;;;2.13;0.10;;;14.90;96.90;;;;;;4947659;28;20057;-81
2022/07/14 00:10:15;;;;;;;0.10;0.10;;;15.50;96.20;;;;;;4942261;28;20418;-82
2022/07/14 00:12:42;;;;;;;0.50;0.05;;;16.60;95.40;;;;;;4946901;29;20039;-79
2022/07/14 00:15:10;;;;;;;0.82;0.10;;;17.20;94.30;;;;;;4949422;28;20405;-79
2022/07/14 00:17:37;;;;;;;0.10;0.10;;;17.10;94.20;;;;;;4946170;29;20126;-83
2022/07/14 00:20:05;;;;;;;1.42;0.10;;;16.80;94.60;;;;;;4950555;29;20106;-81
2022/07/14 00:22:33;;;;;;;1.58;0.10;;;17.00;94.40;;;;;;4941592;29;20036;-82
2022/07/14 00:25:00;;;;;;;1.48;0.00;;;17.60;94.00;;;;;;4947180;29;20031;-79
2022/07/14 00:27:27;;;;;;;0.40;0.10;;;17.40;94.00;;;;;;4938092;29;20401;-80
2022/07/14 00:29:55;;;;;;;0.88;0.17;;;16.90;94.00;;;;;;4952373;29;20497;-80
2022/07/14 00:32:23;;;;;;;1.13;0.30;;;16.40;94.80;;;;;;4941292;29;20555;-79
2022/07/14 00:34:51;;;;;;;0.95;0.10;;;16.40;95.30;;;;;;4936853;29;20047;-80
2022/07/14 00:37:18;;;;;;;1.60;0.00;;;16.40;95.00;;;;;;4951409;29;20652;-81
2022/07/14 00:39:55;;;;;;;2.00;0.10;;;16.30;95.40;;;;;;4950413;29;20162;-79
2022/07/14 00:42:38;;;;;;;0.75;0.10;;;16.30;95.50;;;;;;4945819;29;20578;-82
2022/07/14 00:45:08;;;;;;;0.55;0.13;;;16.20;95.80;;;;;;4953877;29;20390;-81
2022/07/14 00:47:36;;;;;;;0.32;0.10;;;16.40;95.70;;;;;;4940068;29;20031;-82
2022/07/14 00:50:05;;;;;;;0.60;0.20;;;16.20;95.70;;;;;;4948987;29;20493;-80
2022/07/14 00:52:33;;;;;;;1.55;0.40;;;16.40;95.90;;;;;;4949608;29;20035;-80
2022/07/14 00:55:01;;;;;;;0.90;0.10;;;17.70;94.70;;;;;;4948847;28;20059;-81
2022/07/14 00:57:28;;;;;;;8.85;0.22;;;18.60;93.30;;;;;;4949205;29;20067;-81
2022/07/14 00:59:59;;;;;;;0.77;0.10;;;19.80;92.90;;;;;;4952850;29;20035;-81
2022/07/14 01:02:26;;;;;;;2.15;0.20;;;20.10;92.40;;;;;;4940208;29;20419;-83
2022/07/14 01:04:54;;;;;;;3.10;0.10;;;20.10;91.50;;;;;;4950213;29;20573;-82
2022/07/14 01:07:21;;;;;;;0.70;0.15;;;19.30;92.00;;;;;;4937652;29;20028;-80
2022/07/14 01:09:48;;;;;;;1.45;0.10;;;18.50;92.80;;;;;;4933136;29;20068;-79
2022/07/14 01:12:16;;;;;;;1.85;0.20;;;18.50;93.40;;;;;;4934080;29;20177;-80
2022/07/14 01:14:44;;;;;;;1.52;0.20;;;18.80;93.10;;;;;;4932793;29;20356;-81
2022/07/14 01:17:12;;;;;;;3.42;0.32;;;18.70;93.30;;;;;;4939171;29;20028;-81
2022/07/14 01:19:40;;;;;;;1.17;0.22;;;18.40;93.10;;;;;;4951363;29;20038;-79
2022/07/14 01:22:08;;;;;;;0.65;0.30;;;18.90;93.00;;;;;;4945860;29;20043;-78
2022/07/14 01:24:35;;;;;;;0.73;0.40;;;19.90;92.40;;;;;;4938643;29;20089;-77
2022/07/14 01:27:03;;;;;;;1.00;0.20;;;20.30;91.80;;;;;;4943071;29;20032;-82
2022/07/14 01:29:31;;;;;;;0.20;0.10;;;20.90;91.10;;;;;;4952256;28;20497;-83
2022/07/14 01:31:58;;;;;;;0.55;0.55;;;20.20;91.00;;;;;;4948166;28;20046;-82
2022/07/14 01:34:27;;;;;;;2.00;0.30;;;19.50;91.90;;;;;;4952363;29;20058;-82
2022/07/14 01:36:54;;;;;;;0.70;0.20;;;20.00;91.60;;;;;;4943402;29;20040;-82
2022/07/14 01:39:22;;;;;;;1.80;0.10;;;20.80;91.30;;;;;;4933134;29;20103;-81
2022/07/14 01:41:49;;;;;;;3.13;0.20;;;21.60;91.10;;;;;;4934144;29;20115;-78
2022/07/14 01:44:17;;;;;;;0.10;0.10;;;22.20;90.40;;;;;;4952406;29;20145;-81
2022/07/14 01:46:44;;;;;;;0.30;0.20;;;22.40;88.50;;;;;;4943274;29;20441;-83
2022/07/14 01:49:12;;;;;;;1.98;0.40;;;21.20;89.60;;;;;;4951336;29;20042;-80
2022/07/14 01:51:39;;;;;;;2.28;0.10;;;20.40;90.60;;;;;;4949151;29;20049;-82
2022/07/14 01:54:07;;;;;;;0.60;0.10;;;20.80;90.80;;;;;;4950318;28;20094;-82
2022/07/14 01:56:43;;;;;;;2.17;0.10;;;20.50;90.60;;;;;;4951235;29;20052;-82
2022/07/14 01:59:11;;;;;;;4.30;0.30;;;21.10;90.20;;;;;;4937642;29;20027;-80
2022/07/14 02:01:42;;;;;;;0.63;0.10;;;20.80;90.20;;;;;;4945156;28;20120;-83
2022/07/14 02:04:14;;;;;;;1.35;0.10;;;20.70;90.00;;;;;;4940781;29;20490;-81
2022/07/14 02:06:53;;;;;;;1.83;0.10;;;20.40;90.40;;;;;;4947159;28;20031;-82
2022/07/14 02:09:21;;;;;;;0.20;0.10;;;21.20;90.00;;;;;;4948966;29;20031;-83
2022/07/14 02:14:35;;;;;;;0.70;0.20;;;21.00;90.10;;;;;;4949823;29;20085;-77
2022/07/14 02:17:02;;;;;;;1.35;0.10;;;20.00;90.20;;;;;;4938278;29;20027;-80
2022/07/14 02:19:30;;;;;;;0.75;0.10;;;19.20;91.10;;;;;;4948270;29;20035;-79
2022/07/14 02:21:57;;;;;;;0.60;0.30;;;18.70;91.80;;;;;;4946678;28;20458;-81
2022/07/14 02:24:25;;;;;;;0.55;0.10;;;19.10;91.60;;;;;;4932475;29;20060;-76
2022/07/14 02:26:53;;;;;;;0.85;0.10;;;19.30;91.70;;;;;;4934299;29;20031;-79
2022/07/14 02:29:21;;;;;;;1.05;0.13;;;19.00;91.40;;;;;;4951938;29;20035;-80
2022/07/14 02:31:49;;;;;;;0.40;0.10;;;18.80;92.10;;;;;;4946645;28;20055;-79
2022/07/14 02:34:17;;;;;;;0.77;0.52;;;18.70;92.00;;;;;;4936167;29;20429;-79
2022/07/14 02:36:45;;;;;;;1.85;0.10;;;18.80;91.90;;;;;;4935879;29;20035;-80
2022/07/14 02:39:13;;;;;;;3.92;0.20;;;19.70;91.70;;;;;;4950356;29;20031;-82
2022/07/14 02:41:40;;;;;;;1.40;0.20;;;19.70;91.10;;;;;;4953545;29;20023;-79
2022/07/14 02:44:11;;;;;;;2.25;0.20;;;20.30;91.10;;;;;;4954746;28;20166;-80
2022/07/14 02:46:38;;;;;;;3.05;0.22;;;19.90;90.50;;;;;;4948567;29;20059;-84
2022/07/14 02:49:06;;;;;;;0.80;0.20;;;19.10;91.40;;;;;;4940368;29;20154;-81
2022/07/14 02:51:34;;;;;;;3.15;0.20;;;18.50;91.90;;;;;;4940671;29;20051;-82
2022/07/14 02:54:01;;;;;;;0.55;0.20;;;19.30;91.90;;;;;;4952786;28;20039;-79
2022/07/14 02:56:29;;;;;;;2.80;0.30;;;20.40;90.90;;;;;;4950034;28;20415;-81
2022/07/14 02:58:56;;;;;;;0.28;0.13;;;21.00;90.40;;;;;;4946351;29;20035;-82
2022/07/14 03:01:24;;;;;;;1.20;0.10;;;21.60;88.90;;;;;;4949460;28;20028;-81
2022/07/14 03:03:51;;;;;;;2.40;0.88;;;21.60;90.20;;;;;;4943342;29;20037;-79
2022/07/14 03:06:20;;;;;;;3.42;0.30;;;21.60;89.40;;;;;;4946382;29;20037;-77
2022/07/14 03:08:48;;;;;;;1.10;0.10;;;21.60;88.10;;;;;;4938372;29;20305;-80
2022/07/14 03:11:15;;;;;;;1.35;0.15;;;21.40;88.40;;;;;;4935886;29;20027;-82
2022/07/14 03:13:43;;;;;;;0.90;0.10;;;21.30;87.90;;;;;;4935122;29;20115;-81
2022/07/14 03:16:10;;;;;;;1.25;0.45;;;21.20;89.20;;;;;;4935733;29;20142;-80
2022/07/14 03:18:41;;;;;;;2.35;0.30;;;21.10;89.10;;;;;;4946291;29;20027;-84
2022/07/14 03:21:11;;;;;;;3.88;0.40;;;21.10;88.80;;;;;;4949827;29;20042;-81
2022/07/14 03:23:39;;;;;;;0.52;0.10;;;21.30;89.10;;;;;;4943662;29;20039;-81
2022/07/14 03:26:06;;;;;;;2.83;0.20;;;20.70;90.00;;;;;;4934876;29;20034;-81
2022/07/14 03:28:34;;;;;;;1.33;0.80;;;20.40;90.50;;;;;;4934239;29;20038;-77
2022/07/14 03:31:02;;;;;;;1.60;0.40;;;20.00;90.60;;;;;;4935355;29;20072;-76
2022/07/14 03:33:30;;;;;;;1.45;0.20;;;19.30;90.80;;;;;;4950128;29;20062;-80
2022/07/14 03:35:57;;;;;;;0.45;0.20;;;18.60;91.20;;;;;;4952033;29;20039;-77
2022/07/14 03:38:25;;;;;;;1.35;0.20;;;18.10;92.10;;;;;;4950437;28;20042;-81
2022/07/14 03:40:52;;;;;;;0.98;0.20;;;17.90;92.50;;;;;;4940689;29;20035;-78
2022/07/14 03:43:19;;;;;;;5.38;0.93;;;17.70;92.50;;;;;;4934873;29;20160;-80
2022/07/14 03:45:47;;;;;;;0.80;0.20;;;17.50;92.80;;;;;;4940436;29;20426;-79
2022/07/14 03:48:14;;;;;;;0.93;0.35;;;17.50;93.40;;;;;;4935458;29;20371;-81
2022/07/14 03:50:42;;;;;;;0.95;0.20;;;17.50;93.20;;;;;;4938844;29;20032;-79
2022/07/14 03:53:09;;;;;;;1.35;0.20;;;17.40;92.70;;;;;;4934474;29;20079;-79
2022/07/14 03:55:37;;;;;;;0.40;0.13;;;17.40;93.50;;;;;;4934287;29;20035;-80
2022/07/14 03:58:04;;;;;;;3.33;0.38;;;17.30;93.10;;;;;;4935021;29;20206;-80
2022/07/14 04:00:32;;;;;;;0.47;0.10;;;17.30;93.10;;;;;;4945970;29;20386;-79
2022/07/14 04:02:59;;;;;;;0.85;0.68;;;17.20;93.20;;;;;;4948369;29;20031;-79
2022/07/14 04:05:27;;;;;;;0.98;0.30;;;17.10;93.40;;;;;;4953087;29;20070;-80
2022/07/14 04:07:54;;;;;;;1.65;0.25;;;16.90;93.30;;;;;;4947803;29;20129;-80
2022/07/14 04:10:22;;;;;;;1.77;0.20;;;16.80;93.60;;;;;;4952135;29;20023;-79
2022/07/14 04:12:50;;;;;;;0.60;0.20;;;16.70;93.50;;;;;;4945324;29;20121;-81
2022/07/14 04:15:17;;;;;;;0.57;0.57;;;16.60;93.50;;;;;;4953045;29;20110;-80
2022/07/14 04:17:45;;;;;;;1.33;0.20;;;16.60;93.30;;;;;;4937564;28;20501;-80
2022/07/14 04:20:12;;;;;;;2.25;0.20;;;16.40;93.40;;;;;;4934035;29;20039;-81
2022/07/14 04:22:40;;;;;;;0.15;0.10;;;16.30;93.80;;;;;;4941966;29;20030;-77
2022/07/14 04:25:12;;;;;;;0.57;0.10;;;16.20;93.90;;;;;;4953384;29;20031;-83
2022/07/14 04:27:41;;;;;;;2.45;0.20;;;16.10;94.10;;;;;;4948815;29;20035;-77
2022/07/14 04:30:10;;;;;;;1.92;0.38;;;16.10;94.30;;;;;;4953005;29;20034;-81
2022/07/14 04:32:38;;;;;;;1.55;0.90;;;16.10;94.10;;;;;;4941642;29;20035;-80
2022/07/14 04:35:06;;;;;;;2.63;0.47;;;16.20;94.00;;;;;;4952646;29;20039;-80
2022/07/14 04:37:34;;;;;;;0.98;0.28;;;16.20;94.00;;;;;;4937780;29;20043;-78
2022/07/14 04:40:02;;;;;;;1.35;0.65;;;16.30;94.00;;;;;;4944885;29;20041;-78
2022/07/14 04:42:30;;;;;;;2.50;0.40;;;16.40;93.90;;;;;;4941674;29;20481;-78
2022/07/14 04:44:58;;;;;;;2.13;0.20;;;16.50;94.10;;;;;;4952853;28;20031;-80
2022/07/14 04:47:25;;;;;;;2.15;0.22;;;16.50;93.50;;;;;;4940581;29;20047;-78
2022/07/14 04:52:47;;;;;;;0.15;0.05;;;16.50;93.10;;;;;;4938749;29;20066;-81
2022/07/14 04:55:15;;;;;;;0.10;0.10;;;16.50;93.20;;;;;;4945972;29;20377;-82
2022/07/14 04:57:42;;;;;;;0.30;0.03;;;16.50;93.30;;;;;;4937389;29;20122;-79
2022/07/14 05:00:11;;;;;;;0.15;0.05;;;16.50;93.50;;;;;;4937932;29;20074;-78
2022/07/14 05:02:38;;;;;;;2.22;0.20;;;16.60;93.50;;;;;;4937989;29;20040;-76
2022/07/14 05:05:06;;;;;;;1.73;0.17;;;16.70;93.60;;;;;;4935900;29;20054;-82
2022/07/14 05:07:34;;;;;;;1.10;0.25;;;16.80;93.40;;;;;;4951139;28;20363;-78
2022/07/14 05:10:01;;;;;;;1.25;0.25;;;16.90;92.80;;;;;;4946692;28;20036;-83
2022/07/14 05:12:29;;;;;;;1.27;0.10;;;16.90;92.90;;;;;;4939187;29;20467;-80
2022/07/14 05:14:57;;;;;;;1.15;0.30;;;16.80;93.10;;;;;;4949169;29;20131;-80
2022/07/14 05:17:24;;;;;;;2.25;0.20;;;16.70;93.20;;;;;;4940636;28;20039;-79
2022/07/14 05:19:52;;;;;;;0.10;0.10;;;16.70;93.30;;;;;;4934315;29;20038;-84
2022/07/14 05:22:19;;;;;;;0.77;0.20;;;16.70;93.60;;;;;;4941674;29;20034;-80
2022/07/14 05:24:47;;;;;;;1.77;0.20;;;16.60;93.40;;;;;;4933342;29;20036;-78
2022/07/14 05:27:14;;;;;;;5.60;0.70;;;16.40;93.30;;;;;;4939653;29;20093;-81
2022/07/14 05:29:42;;;;;;;2.55;0.55;;;16.30;93.10;;;;;;4951209;29;20040;-81
2022/07/14 05:32:10;;;;;;;0.90;0.10;;;16.20;93.50;;;;;;4950061;29;20453;-81
2022/07/14 05:34:45;;;;;;;3.25;0.47;;;16.00;93.50;;;;;;4939565;29;20154;-78
2022/07/14 05:37:13;;;;;;;0.47;0.20;;;15.80;93.90;;;;;;4942257;29;20031;-77
2022/07/14 05:39:40;;;;;;;5.95;0.30;;;15.70;94.00;;;;;;4939638;29;20450;-77
2022/07/14 05:42:08;;;;;;;1.95;0.13;;;15.50;94.00;;;;;;4941802;28;20532;-78
2022/07/14 05:44:36;;;;;;;0.17;0.10;;;15.30;94.30;;;;;;4933266;29;20023;-81
2022/07/14 05:47:03;;;;;;;1.85;0.10;;;15.10;94.50;;;;;;4933324;29;20036;-80
2022/07/14 05:49:31;;;;;;;2.47;0.35;;;15.00;94.40;;;;;;4933288;29;20028;-79
2022/07/14 05:52:00;;;;;;;0.90;0.10;;;15.00;94.60;;;;;;4938788;29;20134;-79
2022/07/14 05:54:28;;;;;;;2.08;0.75;;;15.00;94.50;;;;;;4938394;29;20046;-81
2022/07/14 05:56:55;;;;;;;0.93;0.40;;;15.00;94.30;;;;;;4929213;29;20397;-77
2022/07/14 05:59:22;;;;;;;1.17;0.28;;;15.00;94.30;;;;;;4952434;29;20110;-81
2022/07/14 06:01:50;;;;;;;2.88;0.60;;;15.00;94.30;;;;;;4946609;28;20027;-81
2022/07/14 06:04:17;;;;;;;0.30;0.10;;;15.00;94.30;;;;;;4936685;29;20028;-81
2022/07/14 06:06:48;;;;;;;2.47;0.40;;;15.00;94.40;;;;;;4942132;29;20019;-80
2022/07/14 06:09:17;;;;;;;3.15;0.75;;;14.90;94.20;;;;;;4950156;29;20038;-81
2022/07/14 06:11:45;;;;;;;6.85;4.15;;;14.80;94.40;;;;;;4945753;29;20028;-78
2022/07/14 06:14:14;;;;;;;4.22;1.70;;;14.70;94.60;;;;;;4943977;29;20039;-79
2022/07/14 06:16:42;;;;;;;1.80;0.60;;;14.50;94.80;;;;;;4948514;29;20040;-80
2022/07/14 06:19:09;;;;;;;1.02;0.60;;;14.60;94.60;;;;;;4935759;29;20141;-79
2022/07/14 06:21:37;;;;;;;2.63;0.47;;;14.60;94.60;;;;;;4939625;29;20024;-80
2022/07/14 06:24:05;;;;;;;1.15;0.52;;;14.60;94.70;;;;;;4937717;29;20079;-77
2022/07/14 06:26:32;;;;;;;0.95;0.40;;;14.60;94.50;;;;;;4940773;29;20096;-80
2022/07/14 06:29:00;;;;;;;2.05;0.50;;;14.40;94.70;;;;;;4936792;29;20078;-76
2022/07/14 06:31:28;;;;;;;2.88;1.67;;;14.30;94.80;;;;;;4939644;29;20146;-78
2022/07/14 06:33:56;;;;;;;2.60;1.10;;;14.10;94.90;;;;;;4945531;29;20083;-76
2022/07/14 06:36:23;;;;;;;0.93;0.57;;;14.00;95.20;;;;;;4949551;28;20075;-81
2022/07/14 06:38:51;;;;;;;1.42;0.47;;;13.80;95.40;;;;;;4935036;29;20066;-83
2022/07/14 06:41:21;;;;;;;0.70;0.47;;;13.80;95.40;;;;;;4949962;29;20027;-78
2022/07/14 06:43:48;;;;;;;2.05;0.40;;;13.70;95.50;;;;;;4950584;29;20046;-76
2022/07/14 06:46:19;;;;;;;4.45;0.30;;;13.60;95.60;;;;;;4951257;29;20015;-78
2022/07/14 06:48:47;;;;;;;1.42;0.32;;;13.60;95.80;;;;;;4935152;29;20031;-80
2022/07/14 06:51:14;;;;;;;3.50;1.10;;;13.40;95.90;;;;;;4938933;29;20023;-81
2022/07/14 06:53:42;;;;;;;4.15;1.92;;;13.40;96.30;;;;;;4952784;29;20102;-80
2022/07/14 06:56:09;;;;;;;2.50;1.08;;;13.30;96.20;;;;;;4952330;28;20087;-79
2022/07/14 06:58:36;;;;;;;2.00;0.70;;;13.20;96.50;;;;;;4935834;29;20046;-82
2022/07/14 07:01:04;;;;;;;0.70;0.40;;;13.10;96.70;;;;;;4946746;29;20059;-79
2022/07/14 07:03:31;;;;;;;2.72;0.80;;;13.00;96.40;;;;;;4946996;29;20126;-81
2022/07/14 07:08:44;;;;;;;2.37;1.13;;;12.90;96.50;;;;;;4938171;29;20141;-81
2022/07/14 07:11:12;;;;;;;3.58;0.68;;;12.80;96.60;;;;;;4951944;29;20031;-81
2022/07/14 07:13:39;;;;;;;0.77;0.30;;;12.80;96.50;;;;;;4940677;29;21083;-80
2022/07/14 07:16:10;;;;;;;0.43;0.43;;;12.70;96.50;;;;;;4951989;28;20086;-79
2022/07/14 07:18:37;;;;;;;1.35;0.43;;;12.60;96.80;;;;;;4934954;29;20502;-80
2022/07/14 07:21:08;;;;;;;1.20;1.10;;;12.60;96.80;;;;;;4936255;29;20038;-79
2022/07/14 07:23:36;;;;;;;3.10;0.50;;;12.50;96.80;;;;;;4935399;29;20552;-80
2022/07/14 07:26:03;;;;;;;2.85;0.40;;;12.40;96.80;;;;;;4946411;29;20087;-81
2022/07/14 07:28:31;;;;;;;0.65;0.60;;;12.30;96.80;;;;;;4935127;29;20039;-82
2022/07/14 07:30:58;;;;;;;1.27;0.43;;;12.30;97.00;;;;;;4935666;29;20041;-80
2022/07/14 07:33:25;;;;;;;0.32;0.20;;;12.30;96.90;;;;;;4954596;29;20067;-77
2022/07/14 07:35:53;;;;;;;0.60;0.30;;;12.30;96.90;;;;;;4949797;29;20037;-80
2022/07/14 07:38:20;;;;;;;3.58;0.80;;;12.20;97.00;;;;;;4952849;29;20027;-81
2022/07/14 07:40:49;;;;;;;1.77;0.40;;;12.20;97.10;;;;;;4952344;29;20027;-80
2022/07/14 07:43:22;;;;;;;1.08;0.70;;;12.20;97.20;;;;;;4938124;29;20498;-77
2022/07/14 07:45:50;;;;;;;4.07;2.35;;;12.10;97.30;;;;;;4951964;29;20474;-77
2022/07/14 07:48:17;;;;;;;0.95;0.63;;;12.10;97.40;;;;;;4935639;28;20035;-79
2022/07/14 07:50:45;;;;;;;1.67;0.40;;;12.10;97.50;;;;;;4934686;29;20103;-81
2022/07/14 07:53:13;;;;;;;1.10;0.40;;;12.00;97.70;;;;;;4935278;29;20233;-76
2022/07/14 07:55:41;;;;;;;2.55;0.60;;;12.00;97.60;;;;;;4940339;29;20028;-82
2022/07/14 07:58:09;;;;;;;3.53;0.60;;;12.00;97.50;;;;;;4939717;29;20031;-77
2022/07/14 08:00:36;;;;;;;10.20;7.78;;;12.00;97.60;;;;;;4953551;28;20035;-76
2022/07/14 08:03:05;;;;;;;8.10;7.30;;;12.00;97.60;;;;;;4946562;29;20023;-76
2022/07/14 08:05:33;;;;;;;2.95;2.40;;;12.00;97.80;;;;;;4952524;28;20028;-81
2022/07/14 08:08:01;;;;;;;1.90;1.80;;;12.00;97.60;;;;;;4936626;29;20324;-79
2022/07/14 08:10:29;;;;;;;1.05;0.80;;;12.00;97.70;;;;;;4939154;29;20035;-77
2022/07/14 08:12:56;;;;;;;4.82;1.63;;;12.00;97.80;;;;;;4945020;28;20031;-82
2022/07/14 08:15:24;;;;;;;1.23;0.68;;;12.00;97.90;;;;;;4953264;29;20035;-79
2022/07/14 08:17:52;;;;;;;1.90;0.57;;;12.00;98.00;;;;;;4949003;28;20366;-80
2022/07/14 08:20:20;;;;;;;3.63;0.93;;;12.00;98.20;;;;;;4953486;29;20515;-77
2022/07/14 08:22:47;;;;;;;1.70;1.02;;;12.00;98.30;;;;;;4937650;28;20019;-80
2022/07/14 08:25:15;;;;;;;2.55;1.77;;;11.90;98.20;;;;;;4935542;29;20111;-78
2022/07/14 08:27:42;;;;;;;3.70;1.95;;;12.00;98.40;;;;;;4945247;29;20502;-76
2022/07/14 08:30:10;;;;;;;4.13;1.70;;;11.90;98.60;;;;;;4951614;28;20035;-77
2022/07/14 08:32:45;;;;;;;1.92;0.60;;;11.90;98.40;;;;;;4948184;28;20103;-77
2022/07/14 08:35:14;;;;;;;5.85;1.55;;;11.80;98.60;;;;;;4952606;29;20066;-81
2022/07/14 08:37:43;;;;;;;5.82;1.27;;;11.80;98.60;;;;;;4945167;29;20031;-78
2022/07/14 08:40:21;;;;;;;1.35;1.10;;;11.70;98.90;;;;;;4953013;29;20106;-78
2022/07/14 08:42:53;;;;;;;2.75;0.65;;;11.70;99.10;;;;;;4941985;29;20378;-79
2022/07/14 08:45:24;;;;;;;2.55;0.85;;;11.60;99.00;;;;;;4952482;29;20034;-80
2022/07/14 08:47:52;;;;;;;1.80;1.00;;;11.50;99.20;;;;;;4937899;29;20046;-76
2022/07/14 08:50:22;;;;;;;2.85;0.60;;;11.40;99.30;;;;;;4949234;28;20445;-77
2022/07/14 08:52:53;;;;;;;1.27;0.63;;;11.40;99.50;;;;;;4930118;29;20142;-77
2022/07/14 08:55:21;;;;;;;3.40;0.82;;;11.30;99.70;;;;;;4950705;29;20034;-77
2022/07/14 08:57:50;;;;;;;1.70;0.63;;;11.20;99.90;;;;;;4937142;28;20143;-78
2022/07/14 09:00:19;;;;;;;1.58;0.60;;;11.10;99.90;;;;;;4933049;29;20447;-78
2022/07/14 09:02:54;;;;;;;1.85;0.50;;;11.20;99.90;;;;;;4938566;29;20035;-77
2022/07/14 09:05:22;;;;;;;1.60;0.80;;;11.10;99.90;;;;;;4947426;29;20130;-77
2022/07/14 09:07:58;;;;;;;2.85;1.48;;;11.00;99.90;;;;;;4936922;28;20501;-76
2022/07/14 09:10:29;;;;;;;1.40;0.90;;;10.90;99.90;;;;;;4934170;29;20031;-76
2022/07/14 09:13:18;;;;;;;4.63;1.02;;;10.80;99.90;;;;;;4949688;29;20043;-78
2022/07/14 09:15:49;;;;;;;4.57;1.17;;;10.80;99.90;;;;;;4952493;29;20043;-81
2022/07/14 09:18:26;;;;;;;4.50;1.15;;;10.70;99.90;;;;;;4951146;29;20498;-77
2022/07/14 09:20:55;;;;;;;2.75;0.80;;;10.70;99.90;;;;;;4939567;29;20055;-76
2022/07/14 09:23:40;;;;;;;1.13;0.50;;;10.60;99.90;;;;;;4946886;29;20042;-77
2022/07/14 09:26:14;;;;;;;1.42;0.75;;;10.50;99.90;;;;;;4937572;29;20032;-77
2022/07/14 09:28:43;;;;;;;5.03;0.85;;;10.40;99.90;;;;;;4933047;29;20356;-77
2022/07/14 09:31:28;;;;;;;4.45;0.73;;;10.30;99.90;;;;;;4939516;29;20166;-80
2022/07/14 09:34:01;;;;;;;2.92;0.80;;;10.20;99.90;;;;;;4933217;29;20110;-82
2022/07/14 09:36:33;;;;;;;1.98;0.85;;;10.20;99.90;;;;;;4951015;28;20059;-81
2022/07/14 09:39:07;;;;;;;4.55;0.80;;;10.10;99.90;;;;;;4955867;28;20042;-80
2022/07/14 09:41:47;;;;;;;2.03;0.80;;;10.10;99.90;;;;;;4948949;29;20133;-81
2022/07/14 09:44:20;;;;;;;3.55;1.40;;;10.00;99.90;;;;;;4937266;29;20031;-81
2022/07/14 09:46:59;;;;;;;6.32;2.85;;;9.90;99.90;;;;;;4941122;29;20062;-82
2022/07/14 09:49:30;;;;;;;5.05;2.70;;;9.90;99.90;;;;;;4960938;28;20027;-84
2022/07/14 09:52:05;;;;;;;7.05;2.90;;;9.80;99.90;;;;;;4953832;29;20473;-82
2022/07/14 09:54:39;;;;;;;4.80;2.30;;;9.80;99.90;;;;;;4952700;29;20062;-81
2022/07/14 09:57:27;;;;;;;6.80;3.17;;;9.70;99.90;;;;;;4945324;29;20107;-82
2022/07/14 10:00:12;;;;;;;5.57;2.97;;;9.60;99.90;;;;;;4936905;29;20406;-79
2022/07/14 10:02:41;;;;;;;6.47;3.08;;;9.50;99.90;;;;;;4939589;29;20035;-81
2022/07/14 10:05:11;;;;;;;5.53;3.45;;;9.50;99.90;;;;;;4936953;29;20032;-77
2022/07/14 10:07:41;;;;;;;4.05;1.80;;;9.40;99.90;;;;;;4936498;29;20245;-82
2022/07/14 10:10:10;;;;;;;3.67;2.00;;;9.40;99.90;;;;;;4940378;29;20016;-82
2022/07/14 10:12:41;;;;;;;6.00;2.60;;;9.40;99.90;;;;;;4948359;29;20043;-84
2022/07/14 10:15:10;;;;;;;6.25;3.47;;;9.30;99.90;;;;;;4955809;29;20125;-82
2022/07/14 10:17:40;;;;;;;10.10;3.65;;;9.30;99.90;;;;;;4941375;29;20438;-82
2022/07/14 10:20:11;;;;;;;5.43;2.42;;;9.30;99.90;;;;;;4936622;29;20240;-81
2022/07/14 10:22:40;;;;;;;5.55;2.72;;;9.30;99.90;;;;;;4947501;29;20027;-81
2022/07/14 10:25:09;;;;;;;3.75;1.85;;;9.30;99.90;;;;;;4955463;29;20110;-81
2022/07/14 10:27:40;;;;;;;3.40;2.25;;;9.20;99.90;;;;;;4946981;28;20331;-81
2022/07/14 10:30:09;;;;;;;4.10;2.28;;;9.20;99.90;;;;;;4956274;29;20024;-80
2022/07/14 10:32:39;;;;;;;3.40;1.52;;;9.20;99.90;;;;;;4952654;28;20509;-79
2022/07/14 10:35:26;;;;;;;1.98;1.33;;;9.20;99.90;;;;;;4955701;29;20126;-79
2022/07/14 10:38:24;;;;;;;1.58;1.00;;;9.20;99.90;;;;;;4951131;29;20031;-80
2022/07/14 10:41:11;;;;;;;3.10;1.63;;;9.10;99.90;;;;;;4954480;29;20041;-79
2022/07/14 10:44:11;;;;;;;1.73;0.80;;;9.10;99.90;;;;;;4944813;28;20110;-79
2022/07/14 10:46:45;;;;;;;1.48;0.80;;;9.10;99.90;;;;;;4935679;29;20141;-78
2022/07/14 10:49:14;;;;;;;1.67;0.85;;;9.10;99.90;;;;;;4946372;29;20038;-79
2022/07/14 10:51:48;;;;;;;2.05;0.80;;;9.00;99.90;;;;;;4945549;29;20051;-80
2022/07/14 10:54:23;;;;;;;2.88;0.80;;;8.90;99.90;;;;;;4949304;29;20042;-81
2022/07/14 10:57:07;;;;;;;1.17;0.60;;;8.90;99.90;;;;;;4950614;28;20390;-80
2022/07/14 10:59:36;;;;;;;2.22;0.47;;;8.90;99.90;;;;;;4950962;29;20035;-79
2022/07/14 11:02:12;;;;;;;1.23;0.63;;;8.90;99.90;;;;;;4945962;28;20513;-79
2022/07/14 11:05:01;;;;;;;0.85;0.40;;;8.80;99.90;;;;;;4949389;29;20039;-80
2022/07/14 11:07:50;;;;;;;1.75;0.70;;;8.80;99.90;;;;;;4934977;29;20403;-79
2022/07/14 11:10:21;;;;;;;5.47;0.65;;;8.70;99.90;;;;;;4940363;29;20032;-78
2022/07/14 11:13:07;;;;;;;2.72;0.70;;;8.70;99.90;;;;;;4932807;29;20074;-78
2022/07/14 11:15:40;;;;;;;1.48;0.65;;;8.60;99.90;;;;;;4953145;29;20067;-77
2022/07/14 11:18:24;;;;;;;2.22;0.57;;;8.60;99.90;;;;;;4951473;28;20163;-77
2022/07/14 11:21:05;;;;;;;3.30;0.60;;;8.60;99.90;;;;;;4944361;28;20434;-77
2022/07/14 11:23:53;;;;;;;1.15;0.82;;;8.50;99.90;;;;;;4941077;29;20307;-78
2022/07/14 11:26:33;;;;;;;5.05;0.98;;;8.50;99.90;;;;;;4941591;29;20042;-76
2022/07/14 11:29:03;;;;;;;5.38;0.40;;;8.50;99.90;;;;;;4943178;29;20039;-77
2022/07/14 11:31:51;;;;;;;1.30;0.60;;;8.50;99.90;;;;;;4949559;29;20032;-79
2022/07/14 11:37:15;;;;;;;2.85;0.80;;;8.40;99.90;;;;;;4935653;28;20070;-78
2022/07/14 11:39:46;;;;;;;1.90;0.68;;;8.40;99.90;;;;;;4942902;29;20267;-79
2022/07/14 11:42:16;;;;;;;0.85;0.52;;;8.40;99.90;;;;;;4940745;29;20475;-79
2022/07/14 11:44:46;;;;;;;1.00;0.70;;;8.40;99.90;;;;;;4942131;29;20401;-81
2022/07/14 11:47:24;;;;;;;0.70;0.47;;;8.40;99.90;;;;;;4945576;29;20079;-80
2022/07/14 11:49:54;;;;;;;1.38;0.88;;;8.40;99.90;;;;;;4949798;28;20038;-79
2022/07/14 11:52:34;;;;;;;4.43;1.48;;;8.30;99.90;;;;;;4940913;28;20054;-79
2022/07/14 11:55:07;;;;;;;0.65;0.40;;;8.30;99.90;;;;;;4950098;29;20046;-79
2022/07/14 11:57:35;;;;;;;0.52;0.43;;;8.30;99.90;;;;;;4940206;28;20027;-79
2022/07/14 12:00:08;;;;;;;2.53;0.57;;;8.20;99.90;;;;;;4941219;29;20035;-82
2022/07/14 12:02:58;;;;;;;2.00;0.60;;;8.20;99.90;;;;;;4950375;29;20031;-81
2022/07/14 12:05:30;;;;;;;1.05;0.90;;;8.20;99.90;;;;;;4949483;28;20100;-78
2022/07/14 12:08:02;;;;;;;1.55;0.68;;;8.10;99.90;;;;;;4936221;29;20027;-79
2022/07/14 12:10:39;;;;;;;0.80;0.60;;;8.10;99.90;;;;;;4949474;29;20031;-79
2022/07/14 12:13:07;;;;;;;3.88;0.90;;;8.10;99.90;;;;;;4950893;29;20130;-81
2022/07/14 12:15:35;;;;;;;4.47;1.08;;;8.10;99.90;;;;;;4948870;29;20576;-79
2022/07/14 12:18:04;;;;;;;1.67;0.80;;;8.10;99.90;;;;;;4947565;28;20035;-78
2022/07/14 12:20:50;;;;;;;3.45;0.90;;;8.00;99.90;;;;;;4948609;29;20023;-79
2022/07/14 12:23:17;;;;;;;4.82;0.90;;;8.00;99.90;;;;;;4935004;29;20126;-79
2022/07/14 12:25:47;;;;;;;1.75;0.80;;;8.00;99.90;;;;;;4948212;29;20031;-79
2022/07/14 12:28:21;;;;;;;1.40;0.77;;;7.90;99.90;;;;;;4949772;28;20118;-82
2022/07/14 12:30:50;;;;;;;2.95;1.63;;;7.90;99.90;;;;;;4949497;28;20035;-80
2022/07/14 12:33:22;;;;;;;3.03;0.70;;;7.90;99.90;;;;;;4950494;29;20572;-79
2022/07/14 12:35:55;;;;;;;1.33;0.75;;;7.80;99.90;;;;;;4944953;29;20090;-79
2022/07/14 12:38:24;;;;;;;2.08;1.23;;;7.80;99.90;;;;;;4944597;29;20058;-78
2022/07/14 12:40:54;;;;;;;2.83;0.90;;;7.80;99.90;;;;;;4937907;28;20144;-78
2022/07/14 12:43:22;;;;;;;1.13;0.80;;;7.80;99.90;;;;;;4945128;28;20035;-81
2022/07/14 12:46:02;;;;;;;2.03;1.08;;;7.70;99.90;;;;;;4948838;28;20023;-79
2022/07/14 12:48:34;;;;;;;4.05;0.85;;;7.70;99.90;;;;;;4942865;28;20031;-79
2022/07/14 12:51:19;;;;;;;2.22;0.80;;;7.70;99.90;;;;;;4945735;29;20098;-79
2022/07/14 12:54:10;;;;;;;3.35;1.60;;;7.70;99.90;;;;;;4959056;28;20053;-80
2022/07/14 12:56:38;;;;;;;1.02;0.70;;;7.70;99.90;;;;;;4940197;28;20079;-79
2022/07/14 12:59:10;;;;;;;1.48;0.70;;;7.60;99.90;;;;;;4933025;29;20436;-78
2022/07/14 13:01:56;;;;;;;2.80;1.35;;;7.60;99.90;;;;;;4942791;28;20035;-78
2022/07/14 13:04:43;;;;;;;2.22;0.98;;;7.60;99.90;;;;;;4948366;29;20047;-79
2022/07/14 13:07:21;;;;;;;2.83;1.10;;;7.60;99.90;;;;;;4942641;28;20489;-82
2022/07/14 13:10:16;;;;;;;2.08;0.70;;;7.60;99.90;;;;;;4940349;28;20106;-79
2022/07/14 13:12:49;;;;;;;2.45;0.77;;;7.50;99.90;;;;;;4946707;28;20047;-80
2022/07/14 13:15:28;;;;;;;2.55;0.95;;;7.50;99.90;;;;;;4943170;28;20031;-79
2022/07/14 13:18:00;;;;;;;2.47;1.42;;;7.60;99.90;;;;;;4945866;28;20200;-79